sensor_id;sensor_type;location;lat;lon;timestamp;pressure;altitude;pressure_sealevel;temperature;humidity
7333;BME280;3707;43.618;25.342;2023-02-21T00:01:40;100271.06;;;11.11;58.50
7333;BME280;3707;43.618;25.342;2023-02-21T00:04:24;100273.00;;;11.24;57.61
7333;BME280;3707;43.618;25.342;2023-02-21T00:07:08;100268.97;;;11.41;57.12
7333;BME280;3707;43.618;25.342;2023-02-21T00:09:52;100278.66;;;11.54;56.64
7333;BME280;3707;43.618;25.342;2023-02-21T00:12:38;100257.97;;;11.59;55.94
7333;BME280;3707;43.618;25.342;2023-02-21T00:15:22;100240.47;;;11.47;55.55
7333;BME280;3707;43.618;25.342;2023-02-21T00:18:06;100252.81;;;11.62;54.94
7333;BME280;3707;43.618;25.342;2023-02-21T00:20:50;100184.72;;;11.19;54.95
7333;BME280;3707;43.618;25.342;2023-02-21T00:23:34;100228.41;;;11.51;54.67
7333;BME280;3707;43.618;25.342;2023-02-21T00:26:19;100219.66;;;11.45;54.86
7333;BME280;3707;43.618;25.342;2023-02-21T00:29:05;100241.56;;;11.63;55.04
7333;BME280;3707;43.618;25.342;2023-02-21T00:31:49;100226.66;;;11.48;54.88
7333;BME280;3707;43.618;25.342;2023-02-21T00:34:34;100231.13;;;11.60;55.42
7333;BME280;3707;43.618;25.342;2023-02-21T00:37:18;100238.13;;;11.67;54.88
7333;BME280;3707;43.618;25.342;2023-02-21T00:40:02;100213.88;;;11.65;55.05
7333;BME280;3707;43.618;25.342;2023-02-21T00:42:47;100203.50;;;11.65;55.03
7333;BME280;3707;43.618;25.342;2023-02-21T00:45:32;100195.94;;;11.84;54.54
7333;BME280;3707;43.618;25.342;2023-02-21T00:48:18;100209.84;;;11.86;54.62
7333;BME280;3707;43.618;25.342;2023-02-21T00:51:03;100133.94;;;11.39;54.44
7333;BME280;3707;43.618;25.342;2023-02-21T00:53:47;100225.41;;;11.83;54.31
7333;BME280;3707;43.618;25.342;2023-02-21T00:56:31;100223.72;;;11.87;54.05
7333;BME280;3707;43.618;25.342;2023-02-21T00:59:15;100215.94;;;11.88;54.61
7333;BME280;3707;43.618;25.342;2023-02-21T01:02:00;100220.25;;;11.88;54.76
7333;BME280;3707;43.618;25.342;2023-02-21T01:04:44;100199.41;;;11.82;54.75
7333;BME280;3707;43.618;25.342;2023-02-21T01:07:28;100204.59;;;11.80;54.91
7333;BME280;3707;43.618;25.342;2023-02-21T01:10:12;100180.97;;;11.62;55.04
7333;BME280;3707;43.618;25.342;2023-02-21T01:12:57;100202.69;;;11.69;54.92
7333;BME280;3707;43.618;25.342;2023-02-21T01:15:41;100198.22;;;11.59;55.64
7333;BME280;3707;43.618;25.342;2023-02-21T01:18:28;100191.25;;;11.55;55.37
7333;BME280;3707;43.618;25.342;2023-02-21T01:21:13;100174.72;;;11.48;55.62
7333;BME280;3707;43.618;25.342;2023-02-21T01:23:58;100164.84;;;11.21;56.23
7333;BME280;3707;43.618;25.342;2023-02-21T01:26:42;100199.53;;;11.26;56.14
7333;BME280;3707;43.618;25.342;2023-02-21T01:29:26;100196.00;;;11.24;56.31
7333;BME280;3707;43.618;25.342;2023-02-21T01:32:09;100201.19;;;11.24;56.20
7333;BME280;3707;43.618;25.342;2023-02-21T01:34:55;100193.38;;;11.20;56.72
7333;BME280;3707;43.618;25.342;2023-02-21T01:37:39;100198.44;;;11.12;56.76
7333;BME280;3707;43.618;25.342;2023-02-21T01:40:23;100194.00;;;11.02;57.17
7333;BME280;3707;43.618;25.342;2023-02-21T01:43:13;100183.59;;;11.02;57.35
7333;BME280;3707;43.618;25.342;2023-02-21T01:45:58;100179.25;;;11.01;56.89
7333;BME280;3707;43.618;25.342;2023-02-21T01:48:42;100181.16;;;11.13;56.70
7333;BME280;3707;43.618;25.342;2023-02-21T01:51:32;100189.91;;;11.21;56.79
7333;BME280;3707;43.618;25.342;2023-02-21T01:54:17;100187.34;;;11.22;56.80
7333;BME280;3707;43.618;25.342;2023-02-21T01:57:03;100185.56;;;11.18;57.03
7333;BME280;3707;43.618;25.342;2023-02-21T01:59:49;100158.63;;;11.10;56.44
7333;BME280;3707;43.618;25.342;2023-02-21T02:02:38;100163.97;;;11.21;56.31
7333;BME280;3707;43.618;25.342;2023-02-21T02:05:24;100163.16;;;11.23;56.41
7333;BME280;3707;43.618;25.342;2023-02-21T02:08:11;100157.03;;;11.20;56.28
7333;BME280;3707;43.618;25.342;2023-02-21T02:11:01;100162.28;;;11.24;56.29
7333;BME280;3707;43.618;25.342;2023-02-21T02:13:59;100155.38;;;11.23;55.99
7333;BME280;3707;43.618;25.342;2023-02-21T02:16:33;100131.75;;;11.05;56.06
7333;BME280;3707;43.618;25.342;2023-02-21T02:19:27;100151.88;;;11.23;56.71
7333;BME280;3707;43.618;25.342;2023-02-21T02:22:24;100156.19;;;11.22;56.25
7333;BME280;3707;43.618;25.342;2023-02-21T02:25:14;100148.34;;;11.18;56.64
7333;BME280;3707;43.618;25.342;2023-02-21T02:27:52;100155.25;;;11.16;56.38
7333;BME280;3707;43.618;25.342;2023-02-21T02:30:39;100155.22;;;11.13;56.58
7333;BME280;3707;43.618;25.342;2023-02-21T02:33:44;100150.88;;;11.13;56.68
7333;BME280;3707;43.618;25.342;2023-02-21T02:36:20;100152.56;;;11.10;57.09
7333;BME280;3707;43.618;25.342;2023-02-21T02:38:58;100157.69;;;11.05;57.06
7333;BME280;3707;43.618;25.342;2023-02-21T02:41:33;100151.72;;;11.11;56.98
7333;BME280;3707;43.618;25.342;2023-02-21T02:44:09;100133.41;;;11.00;56.98
7333;BME280;3707;43.618;25.342;2023-02-21T02:46:42;100150.78;;;11.07;57.08
7333;BME280;3707;43.618;25.342;2023-02-21T02:49:13;100140.25;;;10.95;57.01
7333;BME280;3707;43.618;25.342;2023-02-21T02:51:43;100144.75;;;11.08;57.25
7333;BME280;3707;43.618;25.342;2023-02-21T02:54:10;100150.78;;;11.07;57.02
7333;BME280;3707;43.618;25.342;2023-02-21T02:56:36;100126.41;;;10.96;57.28
7333;BME280;3707;43.618;25.342;2023-02-21T02:59:06;100106.56;;;10.98;57.21
7333;BME280;3707;43.618;25.342;2023-02-21T03:01:57;100141.41;;;11.15;57.04
7333;BME280;3707;43.618;25.342;2023-02-21T03:04:42;100137.72;;;10.98;58.54
7333;BME280;3707;43.618;25.342;2023-02-21T03:07:18;100137.81;;;10.49;61.12
7333;BME280;3707;43.618;25.342;2023-02-21T03:09:52;100134.56;;;10.14;63.60
7333;BME280;3707;43.618;25.342;2023-02-21T03:12:28;100134.97;;;9.87;65.91
7333;BME280;3707;43.618;25.342;2023-02-21T03:15:02;100123.75;;;9.41;69.52
7333;BME280;3707;43.618;25.342;2023-02-21T03:17:35;100121.00;;;9.35;72.61
7333;BME280;3707;43.618;25.342;2023-02-21T03:20:07;100126.34;;;9.43;70.24
7333;BME280;3707;43.618;25.342;2023-02-21T03:22:37;100133.47;;;9.98;65.93
7333;BME280;3707;43.618;25.342;2023-02-21T03:25:04;100131.50;;;10.33;63.59
7333;BME280;3707;43.618;25.342;2023-02-21T03:27:32;100123.22;;;10.55;62.22
7333;BME280;3707;43.618;25.342;2023-02-21T03:30:03;100026.75;;;10.20;60.96
7333;BME280;3707;43.618;25.342;2023-02-21T03:32:35;100102.66;;;10.66;60.77
7333;BME280;3707;43.618;25.342;2023-02-21T03:35:04;100129.75;;;10.86;60.18
7333;BME280;3707;43.618;25.342;2023-02-21T03:37:33;100118.56;;;10.90;59.79
7333;BME280;3707;43.618;25.342;2023-02-21T03:40:03;100126.41;;;10.96;59.45
7333;BME280;3707;43.618;25.342;2023-02-21T03:42:31;100105.59;;;10.90;59.26
7333;BME280;3707;43.618;25.342;2023-02-21T03:44:57;100121.41;;;11.08;59.22
7333;BME280;3707;43.618;25.342;2023-02-21T03:47:24;100123.09;;;11.06;58.83
7333;BME280;3707;43.618;25.342;2023-02-21T03:49:51;100120.56;;;11.11;58.64
7333;BME280;3707;43.618;25.342;2023-02-21T03:52:18;100093.66;;;11.01;58.46
7333;BME280;3707;43.618;25.342;2023-02-21T03:54:45;100097.88;;;10.94;58.62
7333;BME280;3707;43.618;25.342;2023-02-21T03:57:13;100108.53;;;11.16;58.34
7333;BME280;3707;43.618;25.342;2023-02-21T03:59:40;100110.22;;;11.14;58.32
7333;BME280;3707;43.618;25.342;2023-02-21T04:02:07;100103.34;;;11.16;58.30
7333;BME280;3707;43.618;25.342;2023-02-21T04:04:34;100101.66;;;11.19;58.76
7333;BME280;3707;43.618;25.342;2023-02-21T04:07:01;100092.16;;;11.21;57.47
7333;BME280;3707;43.618;25.342;2023-02-21T04:09:27;100103.53;;;11.31;57.70
7333;BME280;3707;43.618;25.342;2023-02-21T04:11:54;100086.06;;;11.18;57.77
7333;BME280;3707;43.618;25.342;2023-02-21T04:14:23;100093.97;;;11.27;57.92
7333;BME280;3707;43.618;25.342;2023-02-21T04:16:49;100095.78;;;11.32;58.48
7333;BME280;3707;43.618;25.342;2023-02-21T04:19:16;100097.63;;;11.42;57.28
7333;BME280;3707;43.618;25.342;2023-02-21T04:21:43;100082.84;;;11.38;57.22
7333;BME280;3707;43.618;25.342;2023-02-21T04:24:10;100091.50;;;11.37;57.66
7333;BME280;3707;43.618;25.342;2023-02-21T04:26:37;100083.78;;;11.45;57.21
7333;BME280;3707;43.618;25.342;2023-02-21T04:29:03;100082.22;;;11.58;56.80
7333;BME280;3707;43.618;25.342;2023-02-21T04:31:32;100080.69;;;11.75;56.48
7333;BME280;3707;43.618;25.342;2023-02-21T04:33:59;100066.03;;;11.81;56.11
7333;BME280;3707;43.618;25.342;2023-02-21T04:36:26;100058.34;;;11.92;55.28
7333;BME280;3707;43.618;25.342;2023-02-21T04:38:53;100068.84;;;12.01;55.20
7333;BME280;3707;43.618;25.342;2023-02-21T04:41:20;100055.91;;;12.09;54.77
7333;BME280;3707;43.618;25.342;2023-02-21T04:43:47;100072.44;;;12.18;54.21
7333;BME280;3707;43.618;25.342;2023-02-21T04:46:16;100063.00;;;12.26;54.00
7333;BME280;3707;43.618;25.342;2023-02-21T04:48:47;100056.03;;;12.25;54.40
7333;BME280;3707;43.618;25.342;2023-02-21T04:51:16;100024.69;;;12.04;54.54
7333;BME280;3707;43.618;25.342;2023-02-21T04:53:46;100056.91;;;12.27;54.07
7333;BME280;3707;43.618;25.342;2023-02-21T04:56:14;100050.81;;;12.24;54.15
7333;BME280;3707;43.618;25.342;2023-02-21T04:58:41;100050.72;;;12.13;54.19
7333;BME280;3707;43.618;25.342;2023-02-21T05:01:09;100055.06;;;12.14;54.36
7333;BME280;3707;43.618;25.342;2023-02-21T05:03:36;100056.75;;;12.05;54.42
7333;BME280;3707;43.618;25.342;2023-02-21T05:06:05;100053.28;;;12.07;54.73
7333;BME280;3707;43.618;25.342;2023-02-21T05:08:32;100058.47;;;12.07;54.05
7333;BME280;3707;43.618;25.342;2023-02-21T05:10:59;100045.53;;;12.13;54.07
7333;BME280;3707;43.618;25.342;2023-02-21T05:13:25;100048.19;;;12.19;53.70
7333;BME280;3707;43.618;25.342;2023-02-21T05:15:52;100036.00;;;12.11;53.41
7333;BME280;3707;43.618;25.342;2023-02-21T05:18:19;100049.13;;;12.29;53.50
7333;BME280;3707;43.618;25.342;2023-02-21T05:20:52;100060.44;;;12.32;53.57
7333;BME280;3707;43.618;25.342;2023-02-21T05:23:21;100032.59;;;12.19;53.44
7333;BME280;3707;43.618;25.342;2023-02-21T05:25:58;100016.13;;;12.16;53.32
7333;BME280;3707;43.618;25.342;2023-02-21T05:28:25;100056.19;;;12.43;53.10
7333;BME280;3707;43.618;25.342;2023-02-21T05:30:52;100051.03;;;12.56;52.40
7333;BME280;3707;43.618;25.342;2023-02-21T05:33:19;100030.16;;;12.42;52.72
7333;BME280;3707;43.618;25.342;2023-02-21T05:35:46;100065.00;;;12.68;52.10
7333;BME280;3707;43.618;25.342;2023-02-21T05:38:13;100053.72;;;12.68;52.49
7333;BME280;3707;43.618;25.342;2023-02-21T05:40:42;100049.41;;;12.68;52.22
7333;BME280;3707;43.618;25.342;2023-02-21T05:43:09;100033.69;;;12.56;52.24
7333;BME280;3707;43.618;25.342;2023-02-21T05:45:35;99985.88;;;12.28;52.24
7333;BME280;3707;43.618;25.342;2023-02-21T05:48:03;100038.06;;;12.59;51.85
7333;BME280;3707;43.618;25.342;2023-02-21T05:50:30;100061.53;;;12.71;52.60
7333;BME280;3707;43.618;25.342;2023-02-21T05:52:57;100044.22;;;12.71;51.97
7333;BME280;3707;43.618;25.342;2023-02-21T05:55:25;100056.38;;;12.75;51.87
7333;BME280;3707;43.618;25.342;2023-02-21T05:57:53;100047.72;;;12.73;51.96
7333;BME280;3707;43.618;25.342;2023-02-21T06:00:23;100061.63;;;12.86;52.01
7333;BME280;3707;43.618;25.342;2023-02-21T06:02:50;100039.91;;;12.75;52.00
7333;BME280;3707;43.618;25.342;2023-02-21T06:05:18;100058.16;;;12.82;51.70
7333;BME280;3707;43.618;25.342;2023-02-21T06:07:45;100066.00;;;12.87;51.66
7333;BME280;3707;43.618;25.342;2023-02-21T06:10:12;100041.66;;;12.82;51.51
7333;BME280;3707;43.618;25.342;2023-02-21T06:12:39;100058.22;;;12.96;51.88
7333;BME280;3707;43.618;25.342;2023-02-21T06:15:08;100062.56;;;13.00;51.66
7333;BME280;3707;43.618;25.342;2023-02-21T06:17:35;100068.66;;;13.01;51.55
7333;BME280;3707;43.618;25.342;2023-02-21T06:20:02;100079.09;;;13.07;51.23
7333;BME280;3707;43.618;25.342;2023-02-21T06:22:30;100079.16;;;13.13;51.41
7333;BME280;3707;43.618;25.342;2023-02-21T06:24:57;100051.31;;;13.04;51.47
7333;BME280;3707;43.618;25.342;2023-02-21T06:27:23;100090.50;;;13.22;51.29
7333;BME280;3707;43.618;25.342;2023-02-21T06:29:50;100072.28;;;13.28;51.20
7333;BME280;3707;43.618;25.342;2023-02-21T06:32:18;100061.91;;;13.36;50.95
7333;BME280;3707;43.618;25.342;2023-02-21T06:34:45;100061.03;;;13.41;51.25
7333;BME280;3707;43.618;25.342;2023-02-21T06:37:12;100068.03;;;13.52;51.08
7333;BME280;3707;43.618;25.342;2023-02-21T06:39:39;100062.84;;;13.68;50.92
7333;BME280;3707;43.618;25.342;2023-02-21T06:42:06;100045.50;;;13.76;50.21
7333;BME280;3707;43.618;25.342;2023-02-21T06:44:33;100044.66;;;13.91;50.06
7333;BME280;3707;43.618;25.342;2023-02-21T06:47:00;100051.59;;;14.10;49.40
7333;BME280;3707;43.618;25.342;2023-02-21T06:49:28;100040.31;;;14.16;49.44
7333;BME280;3707;43.618;25.342;2023-02-21T06:51:55;100058.56;;;14.26;49.88
7333;BME280;3707;43.618;25.342;2023-02-21T06:54:21;100043.78;;;14.31;48.43
7333;BME280;3707;43.618;25.342;2023-02-21T06:56:49;100053.38;;;14.48;47.96
7333;BME280;3707;43.618;25.342;2023-02-21T06:59:16;100044.69;;;14.52;48.31
7333;BME280;3707;43.618;25.342;2023-02-21T07:01:43;100035.09;;;14.54;47.37
7333;BME280;3707;43.618;25.342;2023-02-21T07:04:10;100060.31;;;14.65;47.57
7333;BME280;3707;43.618;25.342;2023-02-21T07:06:38;100022.88;;;14.68;47.15
7333;BME280;3707;43.618;25.342;2023-02-21T07:09:05;100050.69;;;14.82;46.47
7333;BME280;3707;43.618;25.342;2023-02-21T07:11:33;100053.25;;;14.93;46.47
7333;BME280;3707;43.618;25.342;2023-02-21T07:14:00;100029.78;;;14.81;46.06
7333;BME280;3707;43.618;25.342;2023-02-21T07:16:27;100046.25;;;15.06;46.04
7333;BME280;3707;43.618;25.342;2023-02-21T07:18:54;100032.38;;;14.98;45.51
7333;BME280;3707;43.618;25.342;2023-02-21T07:21:21;100054.03;;;15.22;45.84
7333;BME280;3707;43.618;25.342;2023-02-21T07:23:49;100053.94;;;15.37;45.30
7333;BME280;3707;43.618;25.342;2023-02-21T07:26:16;100051.31;;;15.44;45.09
7333;BME280;3707;43.618;25.342;2023-02-21T07:28:43;100036.50;;;15.49;44.94
7333;BME280;3707;43.618;25.342;2023-02-21T07:31:12;100047.81;;;15.43;44.78
7333;BME280;3707;43.618;25.342;2023-02-21T07:33:39;100044.31;;;15.53;44.32
7333;BME280;3707;43.618;25.342;2023-02-21T07:36:06;100044.28;;;15.56;44.17
7333;BME280;3707;43.618;25.342;2023-02-21T07:38:33;100032.13;;;15.46;44.42
7333;BME280;3707;43.618;25.342;2023-02-21T07:41:02;100053.88;;;15.59;44.35
7333;BME280;3707;43.618;25.342;2023-02-21T07:43:30;100030.44;;;15.34;44.64
7333;BME280;3707;43.618;25.342;2023-02-21T07:45:57;100057.41;;;15.49;44.27
7333;BME280;3707;43.618;25.342;2023-02-21T07:48:23;100053.88;;;15.59;44.26
7333;BME280;3707;43.618;25.342;2023-02-21T07:50:50;100054.78;;;15.53;44.62
7333;BME280;3707;43.618;25.342;2023-02-21T07:53:17;100055.56;;;15.63;44.27
7333;BME280;3707;43.618;25.342;2023-02-21T07:55:44;100062.53;;;15.68;44.17
7333;BME280;3707;43.618;25.342;2023-02-21T07:58:12;100057.28;;;15.70;44.27
7333;BME280;3707;43.618;25.342;2023-02-21T08:00:39;100046.81;;;15.73;43.93
7333;BME280;3707;43.618;25.342;2023-02-21T08:03:06;100049.38;;;15.79;43.72
7333;BME280;3707;43.618;25.342;2023-02-21T08:05:33;100058.03;;;15.90;43.32
7333;BME280;3707;43.618;25.342;2023-02-21T08:08:00;100056.22;;;15.98;43.45
7333;BME280;3707;43.618;25.342;2023-02-21T08:10:27;100051.91;;;15.94;42.86
7333;BME280;3707;43.618;25.342;2023-02-21T08:12:54;100036.22;;;15.94;42.74
7333;BME280;3707;43.618;25.342;2023-02-21T08:15:22;100028.28;;;16.03;42.41
7333;BME280;3707;43.618;25.342;2023-02-21T08:17:49;100042.84;;;16.34;42.54
7333;BME280;3707;43.618;25.342;2023-02-21T08:20:16;100023.69;;;16.32;41.84
7333;BME280;3707;43.618;25.342;2023-02-21T08:22:43;100040.91;;;16.52;42.23
7333;BME280;3707;43.618;25.342;2023-02-21T08:25:11;100026.84;;;16.68;41.29
7333;BME280;3707;43.618;25.342;2023-02-21T08:27:38;100038.03;;;16.83;41.14
7333;BME280;3707;43.618;25.342;2023-02-21T08:30:06;100023.16;;;16.84;41.13
7333;BME280;3707;43.618;25.342;2023-02-21T08:32:34;100015.38;;;16.79;40.77
7333;BME280;3707;43.618;25.342;2023-02-21T08:35:02;100019.66;;;16.87;40.58
7333;BME280;3707;43.618;25.342;2023-02-21T08:37:30;100020.53;;;16.87;40.58
7333;BME280;3707;43.618;25.342;2023-02-21T08:40:01;100026.72;;;16.80;40.92
7333;BME280;3707;43.618;25.342;2023-02-21T08:42:28;100018.91;;;16.74;40.84
7333;BME280;3707;43.618;25.342;2023-02-21T08:44:55;100007.69;;;16.64;41.11
7333;BME280;3707;43.618;25.342;2023-02-21T08:47:22;100034.53;;;16.83;41.12
7333;BME280;3707;43.618;25.342;2023-02-21T08:49:50;100027.44;;;16.91;41.25
7333;BME280;3707;43.618;25.342;2023-02-21T08:52:18;100024.63;;;17.08;41.59
7333;BME280;3707;43.618;25.342;2023-02-21T08:54:46;100028.19;;;17.04;41.70
7333;BME280;3707;43.618;25.342;2023-02-21T08:57:13;100021.88;;;17.17;41.21
7333;BME280;3707;43.618;25.342;2023-02-21T08:59:40;100002.63;;;17.19;41.46
7333;BME280;3707;43.618;25.342;2023-02-21T09:02:14;100027.09;;;17.20;41.81
7333;BME280;3707;43.618;25.342;2023-02-21T09:04:41;100020.97;;;17.19;41.58
7333;BME280;3707;43.618;25.342;2023-02-21T09:07:11;100019.94;;;17.32;41.34
7333;BME280;3707;43.618;25.342;2023-02-21T09:09:38;100025.25;;;17.28;41.18
7333;BME280;3707;43.618;25.342;2023-02-21T09:12:05;100036.56;;;17.31;41.59
7333;BME280;3707;43.618;25.342;2023-02-21T09:14:33;100024.34;;;17.30;41.03
7333;BME280;3707;43.618;25.342;2023-02-21T09:17:01;100027.63;;;17.46;41.12
7333;BME280;3707;43.618;25.342;2023-02-21T09:19:28;100029.38;;;17.47;40.61
7333;BME280;3707;43.618;25.342;2023-02-21T09:21:55;100003.91;;;17.58;40.67
7333;BME280;3707;43.618;25.342;2023-02-21T09:24:24;99991.56;;;17.65;40.59
7333;BME280;3707;43.618;25.342;2023-02-21T09:26:51;100006.38;;;17.69;40.24
7333;BME280;3707;43.618;25.342;2023-02-21T09:29:20;99997.72;;;17.61;40.52
7333;BME280;3707;43.618;25.342;2023-02-21T09:31:47;100001.25;;;17.60;40.77
7333;BME280;3707;43.618;25.342;2023-02-21T09:34:14;99993.38;;;17.60;40.54
7333;BME280;3707;43.618;25.342;2023-02-21T09:36:41;100014.13;;;17.73;40.59
7333;BME280;3707;43.618;25.342;2023-02-21T09:39:08;99998.56;;;17.64;40.48
7333;BME280;3707;43.618;25.342;2023-02-21T09:41:39;99991.44;;;17.72;40.55
7333;BME280;3707;43.618;25.342;2023-02-21T09:44:13;99932.31;;;17.50;40.31
7333;BME280;3707;43.618;25.342;2023-02-21T09:46:44;99989.38;;;17.91;40.75
7333;BME280;3707;43.618;25.342;2023-02-21T09:49:15;99995.53;;;17.89;40.60
7333;BME280;3707;43.618;25.342;2023-02-21T09:51:43;99992.09;;;17.85;40.39
7333;BME280;3707;43.618;25.342;2023-02-21T09:54:17;99977.47;;;17.72;40.89
7333;BME280;3707;43.618;25.342;2023-02-21T09:56:46;99977.25;;;17.84;40.62
7333;BME280;3707;43.618;25.342;2023-02-21T09:59:14;99971.22;;;17.79;40.66
7333;BME280;3707;43.618;25.342;2023-02-21T10:01:49;99965.63;;;18.00;40.39
7333;BME280;3707;43.618;25.342;2023-02-21T10:04:25;99956.91;;;17.98;40.38
7333;BME280;3707;43.618;25.342;2023-02-21T10:06:58;99957.75;;;18.00;40.61
7333;BME280;3707;43.618;25.342;2023-02-21T10:09:37;99942.78;;;18.07;40.46
7333;BME280;3707;43.618;25.342;2023-02-21T10:12:16;99933.16;;;18.06;40.19
7333;BME280;3707;43.618;25.342;2023-02-21T10:15:01;99925.06;;;18.18;39.88
7333;BME280;3707;43.618;25.342;2023-02-21T10:17:32;99923.19;;;18.24;39.67
7333;BME280;3707;43.618;25.342;2023-02-21T10:20:04;99933.41;;;18.40;39.51
7333;BME280;3707;43.618;25.342;2023-02-21T10:22:38;99933.41;;;18.40;39.21
7333;BME280;3707;43.618;25.342;2023-02-21T10:25:18;99924.47;;;18.50;38.19
7333;BME280;3707;43.618;25.342;2023-02-21T10:27:48;99919.28;;;18.47;38.62
7333;BME280;3707;43.618;25.342;2023-02-21T10:30:23;99934.22;;;18.43;38.46
7333;BME280;3707;43.618;25.342;2023-02-21T10:32:53;99923.81;;;18.37;38.58
7333;BME280;3707;43.618;25.342;2023-02-21T10:35:20;99900.97;;;18.42;38.69
7333;BME280;3707;43.618;25.342;2023-02-21T10:37:49;99920.78;;;18.60;39.13
7333;BME280;3707;43.618;25.342;2023-02-21T10:40:35;99915.59;;;18.57;38.90
7333;BME280;3707;43.618;25.342;2023-02-21T10:43:11;99914.25;;;18.34;38.86
7333;BME280;3707;43.618;25.342;2023-02-21T10:45:41;99898.72;;;18.24;39.50
7333;BME280;3707;43.618;25.342;2023-02-21T10:48:12;99904.97;;;18.17;39.55
7333;BME280;3707;43.618;25.342;2023-02-21T10:50:42;99894.88;;;17.96;39.62
7333;BME280;3707;43.618;25.342;2023-02-21T10:53:22;99913.22;;;17.97;40.24
7333;BME280;3707;43.618;25.342;2023-02-21T10:56:06;99904.59;;;17.89;40.51
7333;BME280;3707;43.618;25.342;2023-02-21T10:58:35;99893.53;;;17.72;40.70
7333;BME280;3707;43.618;25.342;2023-02-21T11:01:11;99906.44;;;17.84;40.51
7333;BME280;3707;43.618;25.342;2023-02-21T11:03:42;99890.06;;;17.70;40.92
7333;BME280;3707;43.618;25.342;2023-02-21T11:06:21;99877.78;;;17.73;41.02
7333;BME280;3707;43.618;25.342;2023-02-21T11:08:49;99871.09;;;17.54;41.08
7333;BME280;3707;43.618;25.342;2023-02-21T11:11:30;99887.66;;;17.58;41.03
7333;BME280;3707;43.618;25.342;2023-02-21T11:14:19;99880.50;;;17.66;41.02
7333;BME280;3707;43.618;25.342;2023-02-21T11:17:08;99876.69;;;17.85;41.02
7333;BME280;3707;43.618;25.342;2023-02-21T11:19:47;99869.69;;;17.87;41.06
7333;BME280;3707;43.618;25.342;2023-02-21T11:22:16;99861.50;;;18.04;40.63
7333;BME280;3707;43.618;25.342;2023-02-21T11:25:00;99827.91;;;18.22;40.51
7333;BME280;3707;43.618;25.342;2023-02-21T11:27:31;99859.34;;;18.24;40.29
7333;BME280;3707;43.618;25.342;2023-02-21T11:30:03;99834.41;;;18.45;39.61
7333;BME280;3707;43.618;25.342;2023-02-21T11:32:37;99830.88;;;18.47;39.28
7333;BME280;3707;43.618;25.342;2023-02-21T11:35:20;99825.34;;;18.61;39.14
7333;BME280;3707;43.618;25.342;2023-02-21T11:37:49;99826.28;;;18.58;38.88
7333;BME280;3707;43.618;25.342;2023-02-21T11:40:30;99817.34;;;18.67;39.07
7333;BME280;3707;43.618;25.342;2023-02-21T11:43:18;99818.66;;;18.86;38.60
7333;BME280;3707;43.618;25.342;2023-02-21T11:45:56;99832.63;;;18.88;37.96
7333;BME280;3707;43.618;25.342;2023-02-21T11:48:28;99799.31;;;18.90;37.86
7333;BME280;3707;43.618;25.342;2023-02-21T11:53:30;99804.31;;;19.36;37.67
7333;BME280;3707;43.618;25.342;2023-02-21T11:56:02;99790.25;;;19.37;37.10
7333;BME280;3707;43.618;25.342;2023-02-21T11:58:38;99803.44;;;19.36;37.22
7333;BME280;3707;43.618;25.342;2023-02-21T12:01:12;99797.41;;;19.66;37.18
7333;BME280;3707;43.618;25.342;2023-02-21T12:03:52;99801.84;;;19.65;36.85
7333;BME280;3707;43.618;25.342;2023-02-21T12:06:28;99791.28;;;19.31;36.87
7333;BME280;3707;43.618;25.342;2023-02-21T12:09:01;99790.50;;;19.26;36.63
7333;BME280;3707;43.618;25.342;2023-02-21T12:11:45;99803.16;;;19.48;37.01
7333;BME280;3707;43.618;25.342;2023-02-21T12:14:26;99776.63;;;19.57;36.90
7333;BME280;3707;43.618;25.342;2023-02-21T12:17:08;99706.91;;;19.08;37.00
7333;BME280;3707;43.618;25.342;2023-02-21T12:19:50;99773.44;;;19.44;37.11
7333;BME280;3707;43.618;25.342;2023-02-21T12:22:30;99775.81;;;19.55;36.79
7333;BME280;3707;43.618;25.342;2023-02-21T12:25:10;99782.78;;;19.56;36.64
7333;BME280;3707;43.618;25.342;2023-02-21T12:27:45;99775.59;;;19.62;36.33
7333;BME280;3707;43.618;25.342;2023-02-21T12:30:31;99776.38;;;19.66;37.00
7333;BME280;3707;43.618;25.342;2023-02-21T12:33:15;99794.59;;;19.73;36.33
7333;BME280;3707;43.618;25.342;2023-02-21T12:36:17;99781.81;;;19.60;35.99
7333;BME280;3707;43.618;25.342;2023-02-21T12:38:53;99783.81;;;19.50;36.15
7333;BME280;3707;43.618;25.342;2023-02-21T12:41:46;99779.22;;;19.58;36.19
7333;BME280;3707;43.618;25.342;2023-02-21T12:44:18;99779.97;;;19.63;35.89
7333;BME280;3707;43.618;25.342;2023-02-21T12:46:51;99783.38;;;19.67;35.84
7333;BME280;3707;43.618;25.342;2023-02-21T12:49:25;99771.53;;;19.51;35.72
7333;BME280;3707;43.618;25.342;2023-02-21T12:51:57;99770.13;;;19.36;36.02
7333;BME280;3707;43.618;25.342;2023-02-21T12:54:35;99750.88;;;19.36;36.04
7333;BME280;3707;43.618;25.342;2023-02-21T12:57:07;99763.91;;;19.40;36.30
7333;BME280;3707;43.618;25.342;2023-02-21T12:59:47;99752.34;;;19.47;36.25
7333;BME280;3707;43.618;25.342;2023-02-21T13:02:24;99742.97;;;19.36;35.89
7333;BME280;3707;43.618;25.342;2023-02-21T13:04:55;99754.28;;;19.39;35.93
7333;BME280;3707;43.618;25.342;2023-02-21T13:07:28;99749.91;;;19.38;35.94
7333;BME280;3707;43.618;25.342;2023-02-21T13:10:02;99757.56;;;19.49;35.79
7333;BME280;3707;43.618;25.342;2023-02-21T13:12:35;99760.94;;;19.54;35.36
7333;BME280;3707;43.618;25.342;2023-02-21T13:15:14;99738.41;;;19.44;35.60
7333;BME280;3707;43.618;25.342;2023-02-21T13:17:42;99740.13;;;19.45;34.90
7333;BME280;3707;43.618;25.342;2023-02-21T13:20:14;99746.88;;;19.55;35.05
7333;BME280;3707;43.618;25.342;2023-02-21T13:26:45;99758.63;;;19.74;34.97
7333;BME280;3707;43.618;25.342;2023-02-21T13:29:17;99750.00;;;19.69;34.76
7333;BME280;3707;43.618;25.342;2023-02-21T13:31:45;99751.63;;;19.73;34.77
7333;BME280;3707;43.618;25.342;2023-02-21T13:34:18;99767.34;;;19.76;34.50
7333;BME280;3707;43.618;25.342;2023-02-21T13:36:50;99748.94;;;19.76;34.72
7333;BME280;3707;43.618;25.342;2023-02-21T13:39:19;99743.09;;;19.65;34.45
7333;BME280;3707;43.618;25.342;2023-02-21T13:41:50;99739.69;;;19.61;34.58